Tiempo atmosférico en la estación meteorológica de Fresno de Cantiespino, Segovia (993 m.)



Fecha
DESCASC
Temp. máxima en grados centígrados (hora)
DESCASC
Temp. mínima en grados centígrados (hora)
DESCASC
Temp. media en grados centígrados
DESCASC
Racha de viento máxima en m/sg (hora)
DESCASC
Velocidad máxima media en intervalos de 10 minutos(hora)
DESCASC
Precipitaciones diarias en mm
DESCASC
Precipitaciones de 00:00 a 06:00 en mm
DESCASC
Precipitaciones de 06:00 a 12:00 en mm
DESCASC
Precipitaciones de 12:00 a 18:00 en mm
DESCASC
Precipitaciones de 18:00 a 24:00 en mm
DESCASC

Gráficas

Temp. máximas Temp. mínimas Temp. medias Precipitaciones Rachas de viento máximas Velocidades máximas media en intervalos de 10 minutos

Datos horarios

Fecha y hora oficial Temperatura (ºC) Velocidad del viento (km/h) Dirección del viento Racha (km/h) Dirección de racha Precipitación (mm) Presión (hPa) Tendencia (hPa) Humedad (%)
2020-03-29 23:00:00 4.9 11 Norte 15 Norte 0 -- -- 77
2020-03-29 22:00:00 6.7 11 Norte 24 Norte 0 -- -- 68
2020-03-29 21:00:00 8.6 15 Noroeste 24 Noroeste 0 -- -- 58
2020-03-29 20:00:00 11.5 15 Noroeste 27 Noroeste 0 -- -- 46
2020-03-29 19:00:00 13.4 20 Norte 28 Norte 0 -- -- 39
2020-03-29 18:00:00 13.6 18 Norte 30 Norte 0 -- -- 42
2020-03-29 17:00:00 14.1 14 Norte 23 Norte 0 -- -- 45
2020-03-29 16:00:00 14.5 9 Noroeste 26 Noroeste 0 -- -- 40
2020-03-29 15:00:00 14 17 Norte 27 Norte 0 -- -- 44
2020-03-29 14:00:00 13.6 7 Noroeste 21 Noroeste 0 -- -- 48
2020-03-29 13:00:00 12.7 7 Oeste 20 Sudoeste 0 -- -- 49
2020-03-29 12:00:00 11.8 15 Sudoeste 24 Sudoeste 0 -- -- 55
2020-03-29 11:00:00 9.7 15 Sudoeste 24 Sudoeste 0 -- -- 58
2020-03-29 10:00:00 6.1 6 Sudoeste 12 Sudoeste 0 -- -- 69
2020-03-29 09:00:00 0.8 0 Calma 5 Norte 0 -- -- 90
2020-03-29 08:00:00 -0.8 3 Noroeste 5 Norte 0 -- -- 89
2020-03-29 07:00:00 0.5 4 Sur 9 Sur 0 -- -- 85
2020-03-29 06:00:00 0 6 Sudoeste 9 Sur 0 -- -- 87
2020-03-29 05:00:00 0.6 5 Sudoeste 8 Sudoeste 0 -- -- 86
2020-03-29 03:00:00 1.9 0 Calma 10 Sur 0 -- -- 82
2020-03-29 01:00:00 2.1 8 Sudoeste 10 Sur 0 -- -- 82
2020-03-29 00:00:00 2 10 Sur 17 Sur 0 -- -- 84
2020-03-28 23:00:00 2.7 7 Sur 9 Noroeste 0 -- -- 80
2020-03-28 22:00:00 4.4 0 Calma 10 Sudoeste 0 -- -- 73
2020-03-28 21:00:00 6 9 Sudoeste 13 Este 0 -- -- 65
2020-03-28 20:00:00 9 10 Sudeste 12 Sudeste 0 -- -- 56
2020-03-28 19:00:00 12.6 9 Este 24 Este 0 -- -- 44
2020-03-28 18:00:00 13.5 13 Este 26 Este 0 -- -- 41
2020-03-28 17:00:00 14.1 17 Este 30 Nordeste 0 -- -- 41
2020-03-28 16:00:00 14.3 18 Nordeste 30 Nordeste 0 -- -- 39
2020-03-28 15:00:00 13.9 17 Este 34 Nordeste 0 -- -- 39
2020-03-28 14:00:00 13.2 14 Nordeste 27 Nordeste 0 -- -- 45
2020-03-28 13:00:00 12.4 13 Nordeste 25 Nordeste 0 -- -- 39
2020-03-28 12:00:00 11.3 14 Nordeste 22 Norte 0 -- -- 40
2020-03-28 11:00:00 9.1 8 Norte 13 Norte 0 -- -- 58
2020-03-28 10:00:00 5.6 5 Nordeste 8 Nordeste 0 -- -- 69
2020-03-28 09:00:00 1.4 4 Nordeste 5 Nordeste 0 -- -- 81
2020-03-28 08:00:00 -3.2 4 Sudoeste 8 Sur 0 -- -- 93
2020-03-28 07:00:00 -5.2 5 Sur 6 Sur 0 -- -- 91
2020-03-28 06:00:00 -4.5 5 Sudoeste 8 Sur 0 -- -- 92
2020-03-28 05:00:00 -4.4 6 Sur 8 Sur 0 -- -- 90
2020-03-28 04:00:00 -3.9 4 Sudoeste 7 Sudoeste 0 -- -- 89
2020-03-28 03:00:00 -3.4 5 Sur 8 Sudoeste 0 -- -- 89
2020-03-28 02:00:00 -2.8 6 Sur 7 Sudoeste 0 -- -- 86
2020-03-28 01:00:00 -0.9 0 Calma 13 Noroeste 0 -- -- 79
2020-03-28 00:00:00 -0.6 8 Sur 12 Norte 0 -- -- 79
2020-03-27 23:00:00 3.3 6 Sudeste 20 Sudeste 0 -- -- 56
2020-03-27 22:00:00 3.5 12 Sudeste 17 Sudeste 0 -- -- 51
2020-03-27 21:00:00 2.6 5 Sudeste 12 Sudeste 0 -- -- 63
2020-03-27 20:00:00 4.5 6 Este 18 Nordeste 0 -- -- 47
2020-03-27 19:00:00 8.4 10 Este 26 Sudeste 0 -- -- 33
2020-03-27 18:00:00 9.6 15 Este 30 Este 0 -- -- 33
2020-03-27 17:00:00 10.2 15 Este 32 Este 0 -- -- 36
2020-03-27 16:00:00 10.2 17 Este 37 Este 0 -- -- 37
2020-03-27 15:00:00 9.6 22 Este 38 Este 0 -- -- 37
2020-03-27 14:00:00 8.8 22 Este 39 Este 0 -- -- 45
2020-03-27 13:00:00 8.1 20 Este 37 Este 0 -- -- 55
2020-03-27 12:00:00 6.4 20 Este 40 Nordeste 0 -- -- 60
2020-03-27 11:00:00 5.5 19 Este 30 Este 0 -- -- 63
2020-03-27 10:00:00 4.6 15 Este 31 Este 0 -- -- 63
2020-03-27 09:00:00 2.7 20 Este 29 Este 0 -- -- 64
2020-03-27 08:00:00 -0.6 12 Este 23 Nordeste 0 -- -- 77
2020-03-27 07:00:00 -1.5 12 Este 25 Este 0 -- -- 76
2020-03-27 06:00:00 -1.2 13 Este 24 Este 0 -- -- 75
2020-03-27 05:00:00 -0.9 11 Este 24 Este 0 -- -- 77
2020-03-27 04:00:00 -0.2 13 Este 27 Este 0 -- -- 78
2020-03-27 03:00:00 0.8 11 Este 26 Sudeste 0 -- -- 75
2020-03-27 02:00:00 1.9 18 Nordeste 26 Nordeste 0 -- -- 60
2020-03-27 01:00:00 2.4 13 Norte 23 Norte 0 -- -- 67
2020-03-27 00:00:00 2.8 15 Norte 23 Norte 0 -- -- 70
2020-03-26 23:00:00 3.9 15 Norte 21 Norte 0 -- -- 68
2020-03-26 22:00:00 4.5 15 Norte 21 Norte 0 -- -- 69
2020-03-26 21:00:00 4.8 6 Nordeste 16 Norte 0 -- -- 63
2020-03-26 20:00:00 5.3 0 Calma 15 Norte 0 -- -- 67
2020-03-26 19:00:00 6.8 14 Norte 19 Noroeste 0 -- -- 57
2020-03-26 18:00:00 7.4 14 Norte 31 Norte 0 -- -- 54
2020-03-26 17:00:00 8.5 19 Noroeste 30 Norte 0 -- -- 50
2020-03-26 16:00:00 8.3 21 Norte 33 Norte 0 -- -- 54
2020-03-26 15:00:00 7.5 24 Norte 39 Noroeste 0 -- -- 57
2020-03-26 14:00:00 7.7 21 Norte 40 Norte 0 -- -- 60
2020-03-26 13:00:00 7.6 27 Norte 42 Norte 0 -- -- 58
2020-03-26 12:00:00 7.8 26 Norte 38 Norte 0 -- -- 56
2020-03-26 11:00:00 6.7 21 Norte 31 Noroeste 0 -- -- 64
2020-03-26 10:00:00 5.3 19 Noroeste 27 Noroeste 0 -- -- 68
2020-03-26 09:00:00 2.8 13 Sudoeste 22 Sudoeste 0 -- -- 68
2020-03-26 08:00:00 -2.2 11 Sudoeste 17 Sur 0 -- -- 82
2020-03-26 07:00:00 -5.1 9 Sudoeste 14 Sur 0 -- -- 88
2020-03-26 06:00:00 -5.3 9 Sudoeste 12 Sudoeste 0 -- -- 87
2020-03-26 05:00:00 -4.2 5 Sur 11 Noroeste 0 -- -- 80
2020-03-26 04:00:00 -4.2 6 Oeste 14 Sur 0 -- -- 82
2020-03-26 03:00:00 -3.7 6 Sudoeste 9 Sudoeste 0 -- -- 82
2020-03-26 02:00:00 -3 5 Sudoeste 9 Sudoeste 0 -- -- 88
2020-03-26 01:00:00 -2.2 4 Sudoeste 10 Sur 0 -- -- 84
2020-03-26 00:00:00 -0.1 7 Sudoeste 11 Noroeste 0 -- -- 80
2020-03-25 23:00:00 3.6 4 Noroeste 15 Noroeste 0 -- -- 62
2020-03-25 22:00:00 5.4 11 Noroeste 18 Noroeste 0 -- -- 55
2020-03-25 21:00:00 7.7 13 Noroeste 16 Noroeste 0 -- -- 50
2020-03-25 20:00:00 8.3 11 Noroeste 22 Noroeste 0 -- -- 45
2020-03-25 19:00:00 11.7 15 Noroeste 23 Norte 0 -- -- 35
2020-03-25 18:00:00 13.2 15 Noroeste 31 Noroeste 0 -- -- 39
2020-03-25 17:00:00 13.8 18 Noroeste 32 Norte 0 -- -- 41
2020-03-25 16:00:00 13.8 19 Noroeste 31 Noroeste 0 -- -- 40
2020-03-25 15:00:00 13.3 13 Noroeste 33 Noroeste 0 -- -- 45
2020-03-25 14:00:00 12.9 13 Norte 22 Noroeste 0 -- -- 55
2020-03-25 13:00:00 11.8 13 Noroeste 26 Noroeste 0 -- -- 57
2020-03-25 12:00:00 11.1 8 Oeste 20 Noroeste 0 -- -- 66
2020-03-25 11:00:00 10 14 Oeste 20 Oeste 0 -- -- 69
2020-03-25 10:00:00 8.2 13 Sudoeste 19 Sudoeste 0 -- -- 75
2020-03-25 09:00:00 6.8 13 Sudoeste 19 Sudoeste 0 -- -- 81
2020-03-25 08:00:00 2 9 Sudoeste 12 Sur 0 -- -- 97
2020-03-25 07:00:00 -0.3 3 Sudoeste 9 Sur 0 -- -- 96
2020-03-25 06:00:00 0 7 Sudoeste 9 Sudoeste 0 -- -- 94
2020-03-25 05:00:00 -0.1 5 Sudoeste 8 Sudoeste 0 -- -- 94
2020-03-25 04:00:00 -0.3 5 Sur 10 Sudoeste 0 -- -- 94
2020-03-25 03:00:00 -0.3 5 Sur 7 Sur 0 -- -- 93
2020-03-25 02:00:00 -0.3 4 Sudoeste 11 Sudoeste 0 -- -- 94
2020-03-25 01:00:00 -0.1 0 Calma 8 Sudoeste 0 -- -- 90
2020-03-25 00:00:00 0.6 0 Calma 5 Sur 0 -- -- 90
2020-03-24 23:00:00 2.5 0 Calma 5 Norte 0 -- -- 86
2020-03-24 22:00:00 5 3 Nordeste 13 Sudeste 0 -- -- 79
2020-03-24 21:00:00 7 11 Sudeste 26 Este 0 -- -- 69
2020-03-24 20:00:00 8 16 Sudeste 30 Este 0 -- -- 65
2020-03-24 19:00:00 9.7 15 Este 32 Este 0 -- -- 62
2020-03-24 18:00:00 10.8 21 Este 39 Este 0 -- -- 60
2020-03-24 17:00:00 11.6 19 Este 39 Este 0 -- -- 57
2020-03-24 16:00:00 11.2 21 Este 39 Este 0 -- -- 63
2020-03-24 15:00:00 11.5 23 Este 37 Este 0 -- -- 64
2020-03-24 14:00:00 11.6 23 Este 39 Sudeste 0 -- -- 62
2020-03-24 13:00:00 11 24 Este 40 Este 0 -- -- 62
2020-03-24 12:00:00 9.8 23 Este 39 Este 0 -- -- 69
2020-03-24 11:00:00 8.1 22 Este 39 Este 0 -- -- 79
2020-03-24 10:00:00 7.9 15 Este 31 Este 0 -- -- 80
2020-03-24 09:00:00 7.2 16 Este 27 Este 0 -- -- 84
2020-03-24 08:00:00 6.1 10 Este 21 Este 0 -- -- 89
2020-03-24 07:00:00 5.8 11 Este 23 Nordeste 0 -- -- 88
2020-03-24 06:00:00 5.9 5 Nordeste 19 Este 0 -- -- 93
2020-03-24 05:00:00 5.1 6 Nordeste 15 Este 0 -- -- 92
2020-03-24 04:00:00 5.5 0 Calma 20 Este 0 -- -- 89
2020-03-24 03:00:00 5.7 0 Calma 14 Este 0 -- -- 92
2020-03-24 02:00:00 5.4 8 Nordeste 17 Este 0 -- -- 92
2020-03-24 01:00:00 5.7 9 Este 18 Nordeste 0 -- -- 90
2020-03-24 00:00:00 6.5 8 Este 28 Sudeste 0 -- -- 87
2020-03-23 23:00:00 6.3 11 Este 25 Este 0 -- -- 89
2020-03-23 22:00:00 6.4 5 Este 17 Este 0 -- -- 88
2020-03-23 21:00:00 6.9 6 Este 27 Este 0 -- -- 87
2020-03-23 20:00:00 6.9 12 Sudeste 18 Este 0 -- -- 86
2020-03-23 19:00:00 7.9 9 Este 19 Este 0 -- -- 80
2020-03-23 18:00:00 8.6 14 Sur 37 Sudeste 0 -- -- 77
2020-03-23 17:00:00 11.8 22 Este 41 Este 0 -- -- 66
2020-03-23 16:00:00 12.4 19 Este 35 Este 0 -- -- 64
2020-03-23 15:00:00 11.8 19 Este 32 Este 0 -- -- 70
2020-03-23 14:00:00 10.8 21 Este 38 Este 0 -- -- 70
2020-03-23 13:00:00 10.5 18 Este 32 Este 0 -- -- 69
2020-03-23 12:00:00 9.7 19 Este 33 Este 0 -- -- 72
2020-03-23 11:00:00 8.8 18 Este 37 Este 0 -- -- 76
2020-03-23 10:00:00 8.1 13 Nordeste 21 Nordeste 0 -- -- 86
2020-03-23 09:00:00 7.5 12 Este 21 Este 0 -- -- 87
2020-03-23 08:00:00 5.8 11 Este 22 Este 0 -- -- 92
2020-03-23 07:00:00 5.6 14 Nordeste 28 Nordeste 0 -- -- 92
2020-03-23 06:00:00 5.9 8 Nordeste 15 Este 0 -- -- 92
2020-03-23 05:00:00 5.7 5 Nordeste 16 Este 0 -- -- 93
2020-03-23 04:00:00 5.2 6 Nordeste 14 Nordeste 0 -- -- 94
2020-03-23 03:00:00 3.8 5 Este 12 Este 0 -- -- 91
2020-03-23 02:00:00 3.6 3 Nordeste 11 Norte 0 -- -- 93
2020-03-23 01:00:00 3.6 8 Nordeste 12 Este 0 -- -- 93
2020-03-23 00:00:00 3.6 5 Este 11 Este 0 -- -- 92
2020-03-22 23:00:00 4 6 Nordeste 10 Nordeste 0 -- -- 89
2020-03-22 22:00:00 5.2 3 Nordeste 10 Norte 0 -- -- 84
2020-03-22 21:00:00 7.3 3 Este 15 Este 0 -- -- 74
2020-03-22 20:00:00 8.9 11 Este 30 Este 0 -- -- 69
2020-03-22 19:00:00 10.2 16 Este 28 Este 0 -- -- 63
2020-03-22 18:00:00 11.4 21 Este 35 Este 0 -- -- 61
2020-03-22 17:00:00 12.2 21 Este 33 Este 0 -- -- 58
2020-03-22 16:00:00 12.4 20 Sudeste 33 Este 0 -- -- 58
2020-03-22 15:00:00 12.1 23 Este 35 Este 0 -- -- 60
2020-03-22 14:00:00 10.9 17 Sudeste 29 Este 0 -- -- 69
2020-03-22 13:00:00 10.5 14 Este 32 Este 0 -- -- 71
2020-03-22 12:00:00 10.2 13 Este 19 Este 0 -- -- 77
2020-03-22 11:00:00 8.3 9 Nordeste 16 Este 0 -- -- 85
2020-03-22 10:00:00 7.2 8 Nordeste 12 Nordeste 0 -- -- 87
2020-03-22 09:00:00 6.1 5 Nordeste 7 Nordeste 0 -- -- 93
2020-03-22 08:00:00 5.3 4 Este 9 Este 0 -- -- 94
2020-03-22 07:00:00 5.1 0 Calma 4 Nordeste 0 -- -- 94
2020-03-22 06:00:00 4.9 3 Norte 5 Este 0 -- -- 94
2020-03-22 05:00:00 4.9 3 Sudeste 5 Sudeste 0 -- -- 93
2020-03-22 04:00:00 5.7 3 Nordeste 5 Sur 0.2 -- -- 93
2020-03-22 03:00:00 6 3 Sudoeste 8 Noroeste 0.2 -- -- 93
2020-03-22 02:00:00 6.2 6 Noroeste 8 Oeste 1 -- -- 93
2020-03-22 01:00:00 6.3 0 Calma 10 Oeste 0 -- -- 91
2020-03-22 00:00:00 6.6 0 Calma 8 Noroeste 0 -- -- 88
2020-03-21 23:00:00 6.7 0 Calma 6 Nordeste 0 -- -- 88
2020-03-21 22:00:00 6.5 4 Nordeste 15 Oeste 0 -- -- 88
2020-03-21 21:00:00 6.9 12 Oeste 17 Noroeste 0 -- -- 85
2020-03-21 20:00:00 8.6 10 Oeste 16 Oeste 0 -- -- 81
2020-03-21 19:00:00 9.8 7 Sur 21 Sur 0 -- -- 70
2020-03-21 18:00:00 10.3 15 Sur 27 Sur 0 -- -- 71
2020-03-21 17:00:00 10.6 18 Sur 28 Sur 0 -- -- 68
2020-03-21 16:00:00 12.5 11 Sur 23 Sur 0 -- -- 67
2020-03-21 15:00:00 13.4 12 Sudoeste 25 Sudoeste 0 -- -- 64
2020-03-21 14:00:00 11.9 9 Oeste 22 Sudoeste 0 -- -- 67
2020-03-21 13:00:00 12 15 Oeste 24 Oeste 0 -- -- 66
2020-03-21 12:00:00 11.6 18 Sur 33 Sudeste 0 -- -- 64
2020-03-21 11:00:00 11.8 13 Sur 21 Sudoeste 0 -- -- 66
2020-03-21 10:00:00 8.9 8 Oeste 12 Sudoeste 0 -- -- 77
2020-03-21 09:00:00 6 4 Sudoeste 7 Nordeste 0 -- -- 92
2020-03-21 08:00:00 2.8 2 Norte 12 Oeste 0 -- -- 94
2020-03-21 07:00:00 2.6 4 Sudoeste 10 Noroeste 0 -- -- 92
2020-03-21 06:00:00 5.4 5 Noroeste 10 Nordeste 0 -- -- 89
2020-03-21 05:00:00 3.7 4 Sudoeste 24 Sudeste 0 -- -- 90
2020-03-21 04:00:00 6.6 13 Sudeste 22 Sudeste 0 -- -- 86
2020-03-21 03:00:00 7.3 12 Sudeste 22 Sudeste 0 -- -- 81
2020-03-21 02:00:00 6.8 3 Oeste 19 Sudeste 0 -- -- 82
2020-03-21 01:00:00 7.1 15 Este 26 Este 0 -- -- 85
2020-03-21 00:00:00 5 2 Oeste 14 Este 0 -- -- 93
2020-03-20 23:00:00 5 4 Nordeste 9 Este 0 -- -- 90
2020-03-20 22:00:00 7.5 6 Sudeste 19 Sur 0 -- -- 79
2020-03-20 21:00:00 6.4 5 Oeste 10 Sudeste 0 -- -- 85
2020-03-20 20:00:00 8.4 7 Sur 21 Sur 0 -- -- 79
2020-03-20 19:00:00 10.1 13 Sur 23 Sur 0 -- -- 73
2020-03-20 18:00:00 12.2 9 Sur 18 Sur 0 -- -- 66
2020-03-20 17:00:00 12.4 12 Sur 21 Sur 0 -- -- 67
2020-03-20 16:00:00 11.6 13 Sur 31 Sur 0 -- -- 69
2020-03-20 15:00:00 11.4 14 Sur 24 Sudoeste 0 -- -- 75
2020-03-20 14:00:00 13.3 11 Sudoeste 21 Sudoeste 0 -- -- 63
2020-03-20 13:00:00 12.2 7 Nordeste 15 Sur 0 -- -- 71
2020-03-20 12:00:00 11.3 5 Este 17 Sudoeste 0 -- -- 69
2020-03-20 11:00:00 10 5 Norte 9 Nordeste 0 -- -- 79
2020-03-20 10:00:00 8.4 6 Nordeste 10 Nordeste 0 -- -- 85
2020-03-20 09:00:00 5.8 4 Nordeste 8 Nordeste 0 -- -- 96
2020-03-20 08:00:00 2.6 4 Sur 9 Sudoeste 0 -- -- 96
2020-03-20 07:00:00 2.5 6 Sur 9 Sudoeste 0 -- -- 95
2020-03-20 06:00:00 3 5 Sur 8 Sur 0 -- -- 94
2020-03-20 05:00:00 4.2 3 Sur 11 Oeste 0 -- -- 92
2020-03-20 04:00:00 5.7 4 Sudoeste 9 Oeste 0 -- -- 91
2020-03-20 03:00:00 6.8 2 Sudoeste 10 Norte 0 -- -- 88
2020-03-20 02:00:00 6.8 7 Norte 12 Norte 0 -- -- 90
2020-03-20 01:00:00 6.3 4 Nordeste 12 Sudoeste 0 -- -- 90
2020-03-20 00:00:00 6.5 4 Norte 19 Oeste 0 -- -- 84
2020-03-19 23:00:00 7.2 6 Sudoeste 13 Sudoeste 0 -- -- 79
2020-03-19 22:00:00 8.9 7 Este 14 Sudeste 0 -- -- 73
2020-03-19 21:00:00 10.1 3 Sudoeste 8 Sur 0 -- -- 68
2020-03-19 20:00:00 11.4 3 Sudeste 21 Sur 0 -- -- 58
2020-03-19 19:00:00 13.1 9 Sur 22 Sur 0 -- -- 50
2020-03-19 18:00:00 15 10 Sur 23 Sudoeste 0 -- -- 41
2020-03-19 17:00:00 17 16 Sudoeste 25 Sudoeste 0 -- -- 53
2020-03-19 16:00:00 17.2 10 Sur 35 Nordeste 0 -- -- 52
2020-03-19 15:00:00 16.2 21 Nordeste 40 Nordeste 0 -- -- 55
2020-03-19 14:00:00 15.3 23 Nordeste 31 Nordeste 0 -- -- 63
2020-03-19 13:00:00 14.7 14 Nordeste 23 Nordeste 0 -- -- 55
2020-03-19 12:00:00 12.8 15 Nordeste 20 Nordeste 0 -- -- 69
2020-03-19 11:00:00 10.7 11 Nordeste 14 Nordeste 0 -- -- 77
2020-03-19 10:00:00 8.6 3 Norte 7 Norte 0 -- -- 86
2020-03-19 09:00:00 5.4 3 Noroeste 11 Nordeste 0 -- -- 94
2020-03-19 08:00:00 3.3 5 Nordeste 9 Nordeste 0 -- -- 95
2020-03-19 07:00:00 4.4 2 Nordeste 11 Nordeste 0 -- -- 95
2020-03-19 06:00:00 5.3 4 Norte 13 Norte 0 -- -- 95
2020-03-19 05:00:00 5.9 6 Nordeste 11 Este 0 -- -- 94
2020-03-19 04:00:00 6.4 0 Calma 9 Noroeste 0 -- -- 92
2020-03-19 03:00:00 6.9 3 Nordeste 7 Nordeste 0 -- -- 90
2020-03-19 02:00:00 5.1 4 Sudoeste 8 Sur 0 -- -- 94
2020-03-19 01:00:00 5.5 4 Sudoeste 8 Sur 0 -- -- 94
2020-03-19 00:00:00 5.9 5 Sudoeste 9 Sudoeste 0 -- -- 93
2020-03-18 23:00:00 7.1 0 Calma 9 Norte 0 -- -- 88
2020-03-18 22:00:00 9 4 Nordeste 8 Nordeste 0 -- -- 85
2020-03-18 21:00:00 10.1 7 Este 15 Nordeste 0 -- -- 83
2020-03-18 20:00:00 11 9 Este 22 Este 0 -- -- 79
2020-03-18 19:00:00 13 12 Este 24 Este 0 -- -- 74
2020-03-18 18:00:00 14.7 14 Este 32 Nordeste 0 -- -- 70
2020-03-18 17:00:00 16 15 Este 31 Nordeste 0 -- -- 64
2020-03-18 16:00:00 16.6 21 Nordeste 36 Nordeste 0 -- -- 64
2020-03-18 15:00:00 16.2 21 Nordeste 32 Nordeste 0 -- -- 64
2020-03-18 14:00:00 15.6 19 Nordeste 33 Nordeste 0 -- -- 65
2020-03-18 13:00:00 15.5 16 Nordeste 25 Nordeste 0 -- -- 71
2020-03-18 12:00:00 13.7 15 Nordeste 21 Nordeste 0 -- -- 78
2020-03-18 11:00:00 10.3 12 Nordeste 21 Nordeste 0 -- -- 85
2020-03-18 10:00:00 8.2 9 Nordeste 14 Este 0 -- -- 91
2020-03-18 09:00:00 6.8 6 Nordeste 17 Nordeste 0 -- -- 94
2020-03-18 08:00:00 6.1 8 Norte 14 Norte 0 -- -- 95
2020-03-18 07:00:00 6 9 Norte 14 Norte 0 -- -- 94
2020-03-18 06:00:00 5.8 8 Norte 13 Norte 0 -- -- 95
2020-03-18 05:00:00 6.4 5 Este 17 Nordeste 0 -- -- 94
2020-03-18 04:00:00 6.3 9 Norte 12 Nordeste 0 -- -- 94
2020-03-18 03:00:00 6.9 8 Nordeste 24 Este 0 -- -- 93
2020-03-18 02:00:00 7.3 10 Este 27 Este 0 -- -- 91
2020-03-18 01:00:00 8 15 Este 26 Este 0 -- -- 91
2020-03-18 00:00:00 8.3 19 Este 31 Este 0 -- -- 90
2020-03-17 23:00:00 8.4 15 Este 30 Este 0 -- -- 90
2020-03-17 22:00:00 8.5 19 Este 28 Este 0 -- -- 91
2020-03-17 21:00:00 8.8 15 Este 30 Este 0 -- -- 91
2020-03-17 20:00:00 9.5 17 Este 33 Este 0 -- -- 88
2020-03-17 19:00:00 10.4 17 Este 29 Este 0 -- -- 84
2020-03-17 18:00:00 12 15 Este 27 Este 0 -- -- 78
2020-03-17 17:00:00 11.4 13 Este 33 Este 0 -- -- 82
2020-03-17 16:00:00 11.1 21 Este 39 Este 0 -- -- 83
2020-03-17 15:00:00 11.5 27 Este 50 Este 0 -- -- 79
2020-03-17 14:00:00 11.6 36 Este 48 Este 0 -- -- 80
2020-03-17 13:00:00 10.7 32 Este 46 Este 0 -- -- 85
2020-03-17 12:00:00 8.6 24 Este 39 Este 0 -- -- 90
2020-03-17 11:00:00 7.7 19 Este 29 Este 0 -- -- 93
2020-03-17 10:00:00 7.3 15 Este 23 Este 0.2 -- -- 93
2020-03-17 09:00:00 6.2 14 Este 31 Este 1.2 -- -- 94
2020-03-17 08:00:00 6.1 13 Este 26 Este 0.4 -- -- 95
2020-03-17 07:00:00 5.7 10 Este 30 Este 2.8 -- -- 94
2020-03-17 06:00:00 5.8 15 Este 30 Este 3.6 -- -- 94
2020-03-17 05:00:00 5.9 13 Este 26 Este 0.2 -- -- 94
2020-03-17 04:00:00 6.2 15 Este 32 Este 0 -- -- 92
2020-03-17 03:00:00 6.2 18 Este 37 Este 0.4 -- -- 93
2020-03-17 02:00:00 5.6 22 Este 34 Este 0 -- -- 91
2020-03-17 01:00:00 5.4 19 Este 39 Este 0.2 -- -- 92
2020-03-17 00:00:00 5.1 22 Este 37 Este 0.2 -- -- 96
2020-03-16 23:00:00 3.3 9 Norte 14 Nordeste 0.8 -- -- 98
2020-03-16 22:00:00 3.2 6 Nordeste 17 Este 0.4 -- -- 98
2020-03-16 21:00:00 2.4 14 Nordeste 21 Nordeste 0.8 -- -- 98
2020-03-16 20:00:00 2.2 18 Nordeste 24 Nordeste 0.6 -- -- 97
2020-03-16 19:00:00 2 17 Nordeste 27 Este 0.4 -- -- 96
2020-03-16 18:00:00 2.2 14 Nordeste 26 Nordeste 1.8 -- -- 96
2020-03-16 17:00:00 2.5 12 Este 26 Nordeste 1.2 -- -- 94
2020-03-16 16:00:00 2.9 16 Este 29 Nordeste 0.4 -- -- 94
2020-03-16 15:00:00 2.4 16 Este 32 Este 1.4 -- -- 95
2020-03-16 14:00:00 2.2 18 Nordeste 31 Nordeste 1.2 -- -- 96
2020-03-16 13:00:00 1.1 17 Nordeste 27 Nordeste 1.6 -- -- 97
2020-03-16 12:00:00 1.1 20 Nordeste 34 Nordeste 1.8 -- -- 97
2020-03-16 11:00:00 0.7 13 Nordeste 17 Nordeste 1.4 -- -- 97
2020-03-16 10:00:00 0.8 9 Este 18 Este 0.4 -- -- 98
2020-03-16 09:00:00 0.3 8 Nordeste 10 Nordeste 0 -- -- 97
2020-03-16 08:00:00 0.3 5 Este 12 Este 0 -- -- 97
2020-03-16 07:00:00 1 2 Este 13 Sudoeste 1 -- -- 95
2020-03-16 06:00:00 2 9 Oeste 17 Sudoeste 0.6 -- -- 96
2020-03-16 05:00:00 2 11 Sudoeste 27 Sudoeste 0.6 -- -- 95
2020-03-16 04:00:00 2.6 13 Sudoeste 25 Oeste 0.2 -- -- 95
2020-03-16 03:00:00 2.8 18 Oeste 28 Sudoeste 0 -- -- 94
2020-03-16 02:00:00 5.2 16 Sudoeste 31 Sudoeste 0.2 -- -- 91
2020-03-16 01:00:00 6.7 8 Sudoeste 15 Sudoeste 0.2 -- -- 92
2020-03-16 00:00:00 7.2 6 Sur 18 Oeste 0.2 -- -- 93
2020-03-15 23:00:00 7.7 14 Sudoeste 29 Sudoeste 3.6 -- -- 89
2020-03-15 22:00:00 8.1 7 Sudoeste 19 Sur 0 -- -- 90
2020-03-15 21:00:00 8.1 14 Sudoeste 33 Sudoeste 2.8 -- -- 89
2020-03-15 20:00:00 9.5 9 Sudoeste 25 Sudoeste 0 -- -- 90
2020-03-15 19:00:00 10 10 Sur 18 Sudoeste 2.2 -- -- 89
2020-03-15 18:00:00 10.3 9 Sudeste 28 Oeste 4.2 -- -- 83
2020-03-15 17:00:00 13.3 12 Sudoeste 39 Sudoeste 1.2 -- -- 75
2020-03-15 16:00:00 16.9 19 Sudoeste 35 Sur 0 -- -- 46
2020-03-15 15:00:00 17.7 16 Sudoeste 35 Sudoeste 0 -- -- 51
2020-03-15 14:00:00 17.3 22 Sudoeste 36 Sudoeste 0 -- -- 52
2020-03-15 13:00:00 16.5 19 Sudoeste 33 Oeste 0 -- -- 51
2020-03-15 12:00:00 16.7 19 Oeste 37 Sudoeste 0 -- -- 52
2020-03-15 11:00:00 14.9 11 Oeste 31 Oeste 0 -- -- 56
2020-03-15 10:00:00 8.9 5 Nordeste 7 Nordeste 0 -- -- 75
2020-03-15 09:00:00 5 0 Calma 4 Nordeste 0 -- -- 87
2020-03-15 08:00:00 0.9 2 Norte 6 Norte 0 -- -- 94
2020-03-15 07:00:00 0.1 4 Sudoeste 9 Sudoeste 0 -- -- 94
2020-03-15 06:00:00 0.2 5 Sur 8 Sur 0 -- -- 94
2020-03-15 05:00:00 0.2 6 Sudoeste 8 Sudoeste 0 -- -- 92
2020-03-15 04:00:00 0.3 4 Sur 9 Sur 0 -- -- 92
2020-03-15 03:00:00 0.9 7 Sudoeste 9 Sur 0 -- -- 90
2020-03-15 02:00:00 1.5 8 Sur 9 Sur 0 -- -- 89
2020-03-15 01:00:00 2 6 Sur 11 Sudoeste 0 -- -- 87
2020-03-15 00:00:00 2.7 7 Sur 9 Sur 0 -- -- 85
2020-03-14 23:00:00 3.3 10 Sudoeste 12 Sudoeste 0 -- -- 84
2020-03-14 22:00:00 3.9 9 Sudoeste 11 Sudoeste 0 -- -- 83
2020-03-14 21:00:00 5.4 9 Sur 10 Sur 0 -- -- 76
2020-03-14 20:00:00 8.5 6 Sur 8 Norte 0 -- -- 66
2020-03-14 19:00:00 14.1 7 Norte 11 Norte 0 -- -- 43
2020-03-14 18:00:00 15.7 8 Norte 13 Norte 0 -- -- 39
2020-03-14 17:00:00 15.9 9 Norte 15 Norte 0 -- -- 35
2020-03-14 16:00:00 16.2 10 Norte 18 Noroeste 0 -- -- 43
2020-03-14 15:00:00 15.9 6 Norte 10 Nordeste 0 -- -- 34
2020-03-14 14:00:00 14.5 4 Nordeste 14 Norte 0 -- -- 37
2020-03-14 13:00:00 13.3 8 Norte 13 Noroeste 0 -- -- 65
2020-03-14 12:00:00 11.8 7 Noroeste 18 Oeste 0 -- -- 69
2020-03-14 11:00:00 9.8 10 Oeste 17 Oeste 0 -- -- 83
2020-03-14 10:00:00 5.9 12 Oeste 17 Oeste 0 -- -- 98
2020-03-14 09:00:00 5.5 7 Sudoeste 15 Sudoeste 0 -- -- 100
2020-03-14 08:00:00 3.1 9 Sudoeste 19 Oeste 0 -- -- 98
2020-03-14 07:00:00 3.1 7 Oeste 14 Sudoeste 0 -- -- 97
2020-03-14 06:00:00 1 12 Sur 14 Sur 0 -- -- 96
2020-03-14 05:00:00 2.5 4 Sudoeste 10 Noroeste 0 -- -- 95
2020-03-14 04:00:00 3.2 5 Sudoeste 10 Sudoeste 0 -- -- 94
2020-03-14 03:00:00 4.4 7 Sudoeste 19 Oeste 0 -- -- 91
2020-03-14 02:00:00 5.6 11 Oeste 14 Oeste 0 -- -- 93
2020-03-14 01:00:00 5.5 6 Sur 8 Sur 0 -- -- 92
2020-03-14 00:00:00 7.3 5 Sur 12 Noroeste 0 -- -- 89
2020-03-13 23:00:00 8.2 4 Sur 6 Sur 0 -- -- 85
2020-03-13 22:00:00 8.7 2 Nordeste 12 Sudeste 0 -- -- 83
2020-03-13 21:00:00 9.1 6 Este 12 Norte 0 -- -- 83
2020-03-13 20:00:00 10.6 5 Nordeste 17 Norte 0 -- -- 79
2020-03-13 19:00:00 12.5 13 Norte 22 Norte 0 -- -- 72
2020-03-13 18:00:00 15.7 12 Noroeste 20 Norte 0 -- -- 63
2020-03-13 17:00:00 16.7 10 Norte 17 Noroeste 0 -- -- 61
2020-03-13 16:00:00 17.8 6 Noroeste 14 Noroeste 0 -- -- 57
2020-03-13 15:00:00 16.7 9 Norte 14 Noroeste 0 -- -- 59
2020-03-13 14:00:00 16.2 6 Norte 17 Norte 0 -- -- 61
2020-03-13 13:00:00 15.8 9 Nordeste 18 Nordeste 0 -- -- 64
2020-03-13 12:00:00 14.6 11 Norte 19 Norte 0 -- -- 70
2020-03-13 11:00:00 13 11 Este 18 Nordeste 0 -- -- 74
2020-03-13 10:00:00 11 8 Este 16 Este 0 -- -- 83
2020-03-13 09:00:00 7.5 3 Nordeste 8 Sudoeste 0 -- -- 96
2020-03-13 08:00:00 4.5 0 Calma 7 Sur 0 -- -- 95
2020-03-13 07:00:00 5.6 3 Sudoeste 4 Sur 0 -- -- 94
2020-03-13 06:00:00 6.4 2 Noroeste 4 Norte 0 -- -- 94
2020-03-13 05:00:00 6.9 0 Calma 5 Norte 0 -- -- 92
2020-03-13 04:00:00 7.2 3 Nordeste 6 Noroeste 0 -- -- 91
2020-03-13 03:00:00 8.3 0 Calma 8 Nordeste 0 -- -- 89
2020-03-13 02:00:00 8.2 3 Nordeste 6 Nordeste 0 -- -- 89
2020-03-13 01:00:00 8.7 0 Calma 6 Norte 0 -- -- 86
2020-03-13 00:00:00 10.3 6 Noroeste 13 Sur 0 -- -- 86
2020-03-12 23:00:00 10.7 6 Sur 11 Sur 0 -- -- 85
2020-03-12 22:00:00 11.5 6 Norte 11 Norte 0 -- -- 82
2020-03-12 21:00:00 11.6 0 Calma 5 Sur 0 -- -- 81
2020-03-12 20:00:00 14.6 4 Este 17 Noroeste 0 -- -- 69
2020-03-12 19:00:00 17.2 7 Noroeste 21 Norte 0 -- -- 59
2020-03-12 18:00:00 19.4 17 Noroeste 26 Oeste 0 -- -- 48
2020-03-12 17:00:00 22.4 16 Oeste 32 Oeste 0 -- -- 37
2020-03-12 16:00:00 23.2 17 Oeste 30 Sudoeste 0 -- -- 37
2020-03-12 15:00:00 23 18 Sudoeste 31 Sudoeste 0 -- -- 35
2020-03-12 14:00:00 23 20 Sudoeste 33 Oeste 0 -- -- 34
2020-03-12 13:00:00 20.4 11 Noroeste 17 Oeste 0 -- -- 53
2020-03-12 12:00:00 16.1 5 Nordeste 9 Norte 0 -- -- 75
2020-03-12 11:00:00 14.2 3 Norte 5 Norte 0 -- -- 79
2020-03-12 10:00:00 12.2 4 Nordeste 8 Nordeste 0 -- -- 83
2020-03-12 09:00:00 9 0 Calma 8 Sur 0 -- -- 90
2020-03-12 08:00:00 4.6 5 Sudoeste 9 Sur 0 -- -- 95
2020-03-12 07:00:00 3.5 5 Sudoeste 10 Sudoeste 0 -- -- 94
2020-03-12 06:00:00 3.8 6 Sur 10 Sudoeste 0 -- -- 94
2020-03-12 05:00:00 4.5 8 Sur 10 Sudoeste 0 -- -- 94
2020-03-12 04:00:00 5 0 Calma 4 Sur 0 -- -- 91
2020-03-12 03:00:00 6.1 4 Sur 11 Sur 0 -- -- 89
2020-03-12 02:00:00 6.4 8 Sur 10 Sur 0 -- -- 90
2020-03-12 01:00:00 6.9 7 Sur 9 Sur 0 -- -- 88
2020-03-12 00:00:00 8.6 0 Calma 12 Sur 0 -- -- 81
2020-03-11 23:00:00 8.9 10 Sudoeste 13 Sur 0 -- -- 82
2020-03-11 22:00:00 9.8 10 Sudoeste 14 Sur 0 -- -- 79
2020-03-11 21:00:00 11 9 Sur 11 Sur 0 -- -- 79
2020-03-11 20:00:00 13.4 9 Sur 11 Sur 0 -- -- 72
2020-03-11 19:00:00 17.2 0 Calma 14 Oeste 0 -- -- 57
2020-03-11 18:00:00 20.5 8 Oeste 17 Oeste 0 -- -- 44
2020-03-11 17:00:00 22.6 13 Oeste 20 Oeste 0 -- -- 38
2020-03-11 16:00:00 22.2 14 Oeste 26 Oeste 0 -- -- 37
2020-03-11 15:00:00 22.5 16 Sudoeste 29 Sudoeste 0 -- -- 39
2020-03-11 14:00:00 21.5 16 Oeste 29 Oeste 0 -- -- 40
2020-03-11 13:00:00 20.1 18 Oeste 27 Sudoeste 0 -- -- 42
2020-03-11 12:00:00 19 15 Sudoeste 28 Oeste 0 -- -- 51
2020-03-11 11:00:00 16.6 8 Oeste 14 Oeste 0 -- -- 61
2020-03-11 10:00:00 12.3 2 Nordeste 6 Norte 0 -- -- 80
2020-03-11 09:00:00 9.3 0 Calma 4 Sudoeste 0 -- -- 88
2020-03-11 08:00:00 4.8 2 Sudoeste 9 Sur 0 -- -- 95
2020-03-11 07:00:00 4 9 Sur 12 Sudoeste 0 -- -- 94
2020-03-11 06:00:00 3.8 8 Sudoeste 9 Sur 0 -- -- 93
2020-03-11 05:00:00 4.2 6 Sudoeste 7 Sur 0 -- -- 92
2020-03-11 04:00:00 5.1 3 Sudoeste 7 Sudoeste 0 -- -- 92
2020-03-11 03:00:00 5.2 0 Calma 4 Sur 0 -- -- 86
2020-03-11 02:00:00 7.3 4 Nordeste 19 Sudoeste 0 -- -- 82
2020-03-11 01:00:00 10 14 Sudoeste 19 Sudoeste 0 -- -- 77
2020-03-11 00:00:00 9.7 13 Sudoeste 18 Sudoeste 0 -- -- 76
2020-03-10 23:00:00 7.1 7 Sudoeste 9 Sur 0 -- -- 82
2020-03-10 22:00:00 8.3 5 Sudoeste 10 Sur 0 -- -- 78
2020-03-10 21:00:00 9.9 8 Sur 12 Sur 0 -- -- 72
2020-03-10 20:00:00 11.5 8 Sudoeste 14 Sudoeste 0 -- -- 66
2020-03-10 19:00:00 17.1 11 Sudoeste 23 Oeste 0 -- -- 47
2020-03-10 18:00:00 19.3 16 Oeste 28 Oeste 0 -- -- 44
2020-03-10 17:00:00 19.2 19 Sudoeste 33 Sudoeste 0 -- -- 42
2020-03-10 16:00:00 18.5 17 Sudoeste 29 Sudoeste 0 -- -- 47
2020-03-10 15:00:00 17.7 18 Sudoeste 28 Sudoeste 0 -- -- 48
2020-03-10 14:00:00 17.1 17 Sudoeste 25 Sudoeste 0 -- -- 50
2020-03-10 13:00:00 16 17 Sudoeste 26 Sudoeste 0 -- -- 48
2020-03-10 12:00:00 15.3 16 Sudoeste 24 Oeste 0 -- -- 49
2020-03-10 11:00:00 12.5 15 Sudoeste 24 Sudoeste 0 -- -- 56
2020-03-10 10:00:00 10.4 15 Sudoeste 21 Sudoeste 0 -- -- 59
2020-03-10 09:00:00 7.9 10 Sudoeste 17 Sudoeste 0 -- -- 69
2020-03-10 08:00:00 6.6 13 Sudoeste 17 Sudoeste 0 -- -- 72
2020-03-10 07:00:00 6.1 10 Sudoeste 20 Sudoeste 0 -- -- 73
2020-03-10 06:00:00 6.1 14 Sudoeste 24 Sudoeste 0 -- -- 71
2020-03-10 05:00:00 6.2 18 Sudoeste 26 Sudoeste 0 -- -- 70
2020-03-10 04:00:00 5.9 17 Sudoeste 23 Sudoeste 0 -- -- 69
2020-03-10 03:00:00 5.4 10 Sudoeste 18 Sudoeste 0 -- -- 71
2020-03-10 02:00:00 4.1 14 Sudoeste 21 Sudoeste 0 -- -- 76
2020-03-10 01:00:00 2.7 11 Sudoeste 15 Sudoeste 0 -- -- 83
2020-03-10 00:00:00 2.2 10 Sudoeste 13 Sudoeste 0 -- -- 86
2020-03-09 23:00:00 2.6 7 Sudoeste 10 Sur 0 -- -- 86
2020-03-09 22:00:00 3.6 8 Sudoeste 12 Sudoeste 0 -- -- 83
2020-03-09 21:00:00 5.1 9 Sudoeste 11 Sur 0 -- -- 79
2020-03-09 20:00:00 6.9 9 Oeste 12 Oeste 0 -- -- 73
2020-03-09 19:00:00 9.1 8 Oeste 23 Oeste 0 -- -- 62
2020-03-09 18:00:00 10.9 19 Noroeste 27 Noroeste 0 -- -- 52
2020-03-09 17:00:00 11.5 16 Noroeste 31 Noroeste 0 -- -- 53
2020-03-09 16:00:00 11.1 17 Noroeste 30 Noroeste 0 -- -- 54
2020-03-09 15:00:00 10.7 19 Noroeste 32 Noroeste 0 -- -- 56
2020-03-09 14:00:00 9.9 17 Noroeste -- -- -- -- -- 61
2020-03-09 13:00:00 -- -- -- -- -- -- -- -- --
2020-03-09 12:00:00 -- -- -- -- -- -- -- -- --
2020-03-09 11:00:00 -- -- -- -- -- -- -- -- --
2020-03-09 10:00:00 -- -- -- -- -- -- -- -- --
2020-03-09 09:00:00 -- -- -- -- -- -- -- -- --
2020-03-09 08:00:00 -- -- -- -- -- -- -- -- --
2020-03-09 07:00:00 -- -- -- -- -- -- -- -- --
2020-03-09 06:00:00 -- -- -- -- -- -- -- -- --
2020-03-09 05:00:00 -- -- -- -- -- -- -- -- --
2020-03-09 04:00:00 -- -- -- -- -- -- -- -- --
2020-03-09 03:00:00 -- -- -- -- -- -- -- -- --
2020-03-09 02:00:00 -- -- -- -- -- -- -- -- --
2020-03-09 01:00:00 -- -- -- -- -- -- -- -- --
2020-03-09 00:00:00 -- -- -- -- -- -- -- -- --
2020-03-08 23:00:00 -- -- -- -- -- -- -- -- --
2020-03-08 22:00:00 -- -- -- -- -- -- -- -- --
2020-03-08 21:00:00 -- -- -- -- -- -- -- -- --
2020-03-08 20:00:00 -- -- -- -- -- -- -- -- --
2020-03-08 19:00:00 -- -- -- -- -- -- -- -- --
2020-03-08 18:00:00 -- -- -- -- -- -- -- -- --
2020-03-08 17:00:00 -- -- -- -- -- -- -- -- --
2020-03-08 16:00:00 -- -- -- -- -- -- -- -- --
2020-03-08 15:00:00 -- -- -- -- -- -- -- -- --
2020-03-08 14:00:00 -- -- -- -- -- -- -- -- --
2020-03-08 13:00:00 -- -- -- -- -- -- -- -- --
2020-03-08 12:00:00 -- -- -- -- -- -- -- -- --
2020-03-08 11:00:00 -- -- -- -- -- -- -- -- --
2020-03-08 10:00:00 -- -- -- -- -- -- -- -- --
2020-03-08 09:00:00 -- -- -- -- -- -- -- -- --
2020-03-08 08:00:00 -- -- -- -- -- -- -- -- --
2020-03-08 07:00:00 -- -- -- -- -- -- -- -- --
2020-03-08 06:00:00 -- -- -- -- -- -- -- -- --
2020-03-08 05:00:00 -- -- -- -- -- -- -- -- --
2020-03-08 04:00:00 -- -- -- -- -- -- -- -- --
2020-03-08 03:00:00 -- -- -- -- -- -- -- -- --
2020-03-08 02:00:00 -- -- -- -- -- -- -- -- --
2020-03-08 01:00:00 -- -- -- -- -- -- -- -- --
2020-03-08 00:00:00 -- -- -- -- -- -- -- -- --
2020-03-07 23:00:00 -- -- -- -- -- -- -- -- --
2020-03-07 22:00:00 -- -- -- -- -- -- -- -- --
2020-03-07 21:00:00 -- -- -- -- -- -- -- -- --
2020-03-07 20:00:00 -- -- -- -- -- -- -- -- --
2020-03-07 19:00:00 -- -- -- -- -- -- -- -- --
2020-03-07 18:00:00 -- -- -- -- -- -- -- -- --
2020-03-07 17:00:00 -- -- -- -- -- -- -- -- --
2020-03-07 16:00:00 -- -- -- -- -- -- -- -- --
2020-03-07 15:00:00 -- -- -- -- -- -- -- -- --
2020-03-07 14:00:00 -- -- -- -- -- -- -- -- --
2020-03-07 13:00:00 -- -- -- -- -- -- -- -- --
2020-03-07 12:00:00 -- -- -- -- -- -- -- -- --
2020-03-07 11:00:00 -- -- -- -- -- -- -- -- --
2020-03-07 10:00:00 -- -- -- -- -- -- -- -- --
2020-03-07 09:00:00 -- -- -- -- -- -- -- -- --
2020-03-07 08:00:00 -- -- -- -- -- -- -- -- --
2020-03-07 07:00:00 -- -- -- -- -- -- -- -- --
2020-03-07 06:00:00 -- -- -- -- -- -- -- -- --
2020-03-07 05:00:00 -- -- -- -- -- -- -- -- --
2020-03-07 04:00:00 -- -- -- -- -- -- -- -- --
2020-03-07 03:00:00 -- -- -- -- -- -- -- -- --
2020-03-07 02:00:00 -- -- -- -- -- -- -- -- --
2020-03-07 01:00:00 -- -- -- -- -- -- -- -- --
2020-03-07 00:00:00 -- -- -- -- -- -- -- -- --
2020-03-06 23:00:00 -- -- -- -- -- -- -- -- --
2020-03-06 22:00:00 -- -- -- -- -- -- -- -- --
2020-03-06 21:00:00 -- -- -- -- -- -- -- -- --
2020-03-06 20:00:00 -- -- -- -- -- -- -- -- --
2020-03-06 19:00:00 -- -- -- -- -- -- -- -- --
2020-03-06 18:00:00 -- -- -- -- -- -- -- -- --
2020-03-06 17:00:00 -- -- -- -- -- -- -- -- --
2020-03-06 16:00:00 -- -- -- -- -- -- -- -- --
2020-03-06 15:00:00 -- -- -- -- -- -- -- -- --
2020-03-06 14:00:00 -- -- -- -- -- -- -- -- --
2020-03-06 13:00:00 -- -- -- -- -- -- -- -- --
2020-03-06 12:00:00 -- -- -- -- -- -- -- -- --
2020-03-06 11:00:00 -- -- -- -- -- -- -- -- --
2020-03-06 10:00:00 -- -- -- -- -- -- -- -- --
2020-03-06 09:00:00 -- -- -- -- -- -- -- -- --
2020-03-06 08:00:00 -- -- -- -- -- -- -- -- --
2020-03-06 07:00:00 -- -- -- -- -- -- -- -- --
2020-03-06 06:00:00 -- -- -- -- -- -- -- -- --
2020-03-06 05:00:00 -- -- -- -- -- -- -- -- --
2020-03-06 04:00:00 -- -- -- -- -- -- -- -- --
2020-03-06 03:00:00 -- -- -- -- -- -- -- -- --
2020-03-06 02:00:00 -- -- -- -- -- -- -- -- --
2020-03-06 01:00:00 -- -- -- -- -- -- -- -- --
2020-03-06 00:00:00 -- -- -- -- -- -- -- -- --
2020-03-05 23:00:00 -- -- -- -- -- -- -- -- --
2020-03-05 22:00:00 -- -- -- -- -- -- -- -- --
2020-03-05 21:00:00 -- -- -- -- -- -- -- -- --
2020-03-05 20:00:00 -- -- -- -- -- -- -- -- --
2020-03-05 19:00:00 -- -- -- -- -- -- -- -- --
2020-03-05 18:00:00 -- -- -- -- -- -- -- -- --
2020-03-05 17:00:00 -- -- -- -- -- -- -- -- --
2020-03-05 16:00:00 -- -- -- -- -- -- -- -- --
2020-03-05 15:00:00 -- -- -- -- -- -- -- -- --
2020-03-05 14:00:00 -- -- -- -- -- -- -- -- --
2020-03-05 13:00:00 -- -- -- -- -- -- -- -- --
2020-03-05 12:00:00 -- -- -- -- -- -- -- -- --
2020-03-05 11:00:00 -- -- -- -- -- -- -- -- --
2020-03-05 10:00:00 -- -- -- -- -- -- -- -- --
2020-03-05 09:00:00 -- -- -- -- -- -- -- -- --
2020-03-05 08:00:00 -- -- -- -- -- -- -- -- --
2020-03-05 07:00:00 -- -- -- -- -- -- -- -- --
2020-03-05 06:00:00 -- -- -- -- -- -- -- -- --
2020-03-05 05:00:00 -- -- -- -- -- -- -- -- --
2020-03-05 04:00:00 -- -- -- -- -- -- -- -- --
2020-03-05 03:00:00 -- -- -- -- -- -- -- -- --
2020-03-05 02:00:00 -- -- -- -- -- -- -- -- --
2020-03-05 01:00:00 -- -- -- -- -- -- -- -- --
2020-03-05 00:00:00 -- -- -- -- -- -- -- -- --
2020-03-04 23:00:00 -- -- -- -- -- -- -- -- --
2020-03-04 22:00:00 -- -- -- -- -- -- -- -- --
2020-03-04 21:00:00 -- -- -- -- -- -- -- -- --
2020-03-04 20:00:00 -- -- -- -- -- -- -- -- --
2020-03-04 19:00:00 -- -- -- -- -- -- -- -- --
2020-03-04 18:00:00 -- -- -- -- -- -- -- -- --
2020-03-04 17:00:00 -- -- -- -- -- -- -- -- --
2020-03-04 16:00:00 -- -- -- -- -- -- -- -- --
2020-03-04 15:00:00 -- -- -- -- -- -- -- -- --
2020-03-04 14:00:00 -- -- -- -- -- -- -- -- --
2020-03-04 13:00:00 -- -- -- -- -- -- -- -- --
2020-03-04 12:00:00 -- -- -- -- -- -- -- -- --
2020-03-04 11:00:00 -- -- -- -- -- -- -- -- --
2020-03-04 10:00:00 -- -- -- -- -- -- -- -- --
2020-03-04 09:00:00 -- -- -- -- -- -- -- -- --
2020-03-04 08:00:00 -- -- -- -- -- -- -- -- --
2020-03-04 07:00:00 -- -- -- -- -- -- -- -- --
2020-03-04 06:00:00 -- -- -- -- -- -- -- -- --
2020-03-04 05:00:00 -- -- -- -- -- -- -- -- --
2020-03-04 04:00:00 -- -- -- -- -- -- -- -- --
2020-03-04 03:00:00 -- -- -- -- -- -- -- -- --
2020-03-04 02:00:00 -- -- -- -- -- -- -- -- --
2020-03-04 01:00:00 -- -- -- -- -- -- -- -- --
2020-03-04 00:00:00 -- -- -- -- -- -- -- -- --
2020-03-03 23:00:00 -- -- -- -- -- -- -- -- --
2020-03-03 22:00:00 -- -- -- -- -- -- -- -- --
2020-03-03 21:00:00 -- -- -- -- -- -- -- -- --
2020-03-03 20:00:00 -- -- -- -- -- -- -- -- --
2020-03-03 19:00:00 -- -- -- -- -- -- -- -- --
2020-03-03 18:00:00 -- -- -- -- -- -- -- -- --
2020-03-03 17:00:00 -- -- -- -- -- -- -- -- --
2020-03-03 16:00:00 -- -- -- -- -- -- -- -- --
2020-03-03 15:00:00 -- -- -- -- -- -- -- -- --
2020-03-03 14:00:00 -- -- -- -- -- -- -- -- --
2020-03-03 13:00:00 -- -- -- -- -- -- -- -- --
2020-03-03 12:00:00 -- -- -- -- -- -- -- -- --
2020-03-03 11:00:00 -- -- -- -- -- -- -- -- --
2020-03-03 10:00:00 -- -- -- -- -- -- -- -- --
2020-03-03 09:00:00 -- -- -- -- -- -- -- -- --
2020-03-03 08:00:00 -- -- -- -- -- -- -- -- --
2020-03-03 07:00:00 -- -- -- -- -- -- -- -- --
2020-03-03 06:00:00 -- -- -- -- -- -- -- -- --
2020-03-03 05:00:00 -- -- -- -- -- -- -- -- --
2020-03-03 04:00:00 -- -- -- -- -- -- -- -- --
2020-03-03 03:00:00 -- -- -- -- -- -- -- -- --
2020-03-03 02:00:00 -- -- -- -- -- -- -- -- --
2020-03-03 01:00:00 -- -- -- -- -- -- -- -- --
2020-03-03 00:00:00 -- -- -- -- -- -- -- -- --
2020-03-02 23:00:00 -- -- -- -- -- -- -- -- --
2020-03-02 22:00:00 -- -- -- -- -- -- -- -- --
2020-03-02 21:00:00 -- -- -- -- -- -- -- -- --
2020-03-02 20:00:00 -- -- -- -- -- -- -- -- --
2020-03-02 19:00:00 -- -- -- -- -- -- -- -- --
2020-03-02 18:00:00 -- -- -- -- -- -- -- -- --
2020-03-02 17:00:00 -- -- -- -- -- -- -- -- --
2020-03-02 16:00:00 -- -- -- -- -- -- -- -- --
2020-03-02 15:00:00 -- -- -- -- -- -- -- -- --
2020-03-02 14:00:00 -- -- -- -- -- -- -- -- --
2020-03-02 13:00:00 -- -- -- -- -- -- -- -- --
2020-03-02 12:00:00 -- -- -- -- -- -- -- -- --
2020-03-02 11:00:00 -- -- -- -- -- -- -- -- --
2020-03-02 10:00:00 -- -- -- -- -- -- -- -- --
2020-03-02 09:00:00 -- -- -- -- -- -- -- -- --
2020-03-02 08:00:00 -- -- -- -- -- -- -- -- --
2020-03-02 07:00:00 -- -- -- -- -- -- -- -- --
2020-03-02 06:00:00 -- -- -- -- -- -- -- -- --
2020-03-02 05:00:00 -- -- -- -- -- -- -- -- --
2020-03-02 04:00:00 -- -- -- -- -- -- -- -- --
2020-03-02 03:00:00 -- -- -- -- -- -- -- -- --
2020-03-02 02:00:00 -- -- -- -- -- -- -- -- --
2020-03-02 01:00:00 -- -- -- -- -- -- -- -- --
2020-03-02 00:00:00 -- -- -- -- -- -- -- -- --
2020-03-01 23:00:00 -- -- -- -- -- -- -- -- --
2020-03-01 22:00:00 -- -- -- -- -- -- -- -- --
2020-03-01 21:00:00 -- -- -- -- -- -- -- -- --
2020-03-01 20:00:00 -- -- -- -- -- -- -- -- --
2020-03-01 19:00:00 -- -- -- -- -- -- -- -- --
2020-03-01 18:00:00 -- -- -- -- -- -- -- -- --
2020-03-01 17:00:00 -- -- -- -- -- -- -- -- --
2020-03-01 16:00:00 -- -- -- -- -- -- -- -- --
2020-03-01 15:00:00 11.4 31 Sudoeste 55 Sudoeste 0 -- -- 74
2020-03-01 14:00:00 10.6 26 Sudoeste 51 Sudoeste 0 -- -- 79
2020-03-01 13:00:00 10 36 Sudoeste 59 Sudoeste 0 -- -- 81
2020-03-01 12:00:00 8.8 30 Sudoeste 55 Sudoeste 0 -- -- 86
2020-03-01 11:00:00 7.6 27 Sudoeste 49 Oeste 0.4 -- -- 93
2020-03-01 10:00:00 7.8 33 Sudoeste 59 Sudoeste 0 -- -- 83
2020-03-01 09:00:00 7.3 31 Sudoeste 59 Sudoeste 0.2 -- -- 83
2020-03-01 08:00:00 6 26 Sudoeste 42 Sudoeste 0 -- -- 90
2020-03-01 07:00:00 5.7 26 Sudoeste 42 Sudoeste 0 -- -- 92
2020-03-01 06:00:00 5.6 25 Sudoeste 40 Sudoeste 0 -- -- 92
2020-03-01 05:00:00 5.3 23 Sudoeste 37 Sudoeste 0 -- -- 93
2020-03-01 04:00:00 5 17 Sudoeste 44 Sudoeste 0 -- -- 93
2020-03-01 03:00:00 5.4 25 Sudoeste 43 Sudoeste 0 -- -- 87
2020-03-01 02:00:00 6.3 27 Sudoeste 47 Sudoeste 0 -- -- 77
2020-03-01 01:00:00 6.1 18 Sudoeste 40 Sudoeste 0 -- -- 77
2020-03-01 00:00:00 6.4 18 Sudoeste 34 Sudoeste 0 -- -- 73
2020-02-29 23:00:00 6 24 Sudoeste 35 Sudoeste 0 -- -- 76
2020-02-29 22:00:00 6.1 17 Sudoeste 35 Sudoeste 0 -- -- 76
2020-02-29 21:00:00 7.2 22 Sudoeste 45 Sudoeste 0 -- -- 73
2020-02-29 20:00:00 8 25 Sudoeste 49 Oeste 0 -- -- 69
2020-02-29 19:00:00 8.7 27 Oeste 58 Oeste 0 -- -- 62
2020-02-29 18:00:00 9.9 32 Oeste 50 Oeste 0 -- -- 66
2020-02-29 17:00:00 11.5 33 Oeste 60 Oeste 0 -- -- 68
2020-02-29 16:00:00 11.9 35 Oeste 64 Oeste 0.2 -- -- 76
2020-02-29 15:00:00 12.2 36 Oeste 66 Sudoeste 0 -- -- 80
2020-02-29 14:00:00 13.5 38 Oeste 58 Oeste 0 -- -- 65
2020-02-29 13:00:00 12.5 37 Sudoeste 60 Sudoeste 0 -- -- 70
2020-02-29 12:00:00 11.9 32 Sudoeste 57 Oeste 0 -- -- 66
2020-02-29 11:00:00 10.1 26 Sudoeste 42 Sudoeste 0 -- -- 64
2020-02-29 10:00:00 9.8 22 Sudoeste 40 Sudoeste 0 -- -- 50
2020-02-29 09:00:00 8.5 22 Sudoeste 35 Sudoeste 0 -- -- 51
2020-02-29 08:00:00 7.2 20 Oeste 34 Sudoeste 0 -- -- 60
2020-02-29 07:00:00 7.7 22 Sudoeste 31 Sudoeste 0 -- -- 53
2020-02-29 06:00:00 7.7 20 Sudoeste 27 Sudoeste 0 -- -- 61
2020-02-29 05:00:00 7 12 Sudoeste 26 Sudoeste 0 -- -- 63
2020-02-29 04:00:00 5.9 12 Sudoeste 19 Sudoeste 0 -- -- 70
2020-02-29 03:00:00 1.4 5 Norte 11 Sudoeste 0 -- -- 85
2020-02-29 02:00:00 0.6 7 Sudoeste 9 Sur 0 -- -- 85
2020-02-29 01:00:00 1.9 3 Sudoeste 5 Sur 0 -- -- 83
2020-02-29 00:00:00 3.1 4 Sudoeste 10 Oeste 0 -- -- 77